Apple Valley, North Dakota
Current Conditions -  °F | °C
As of 9:01 PM on Monday 22 Dec 2014 (Local Time) from KBIS Reporting Station
Light Snow Light Snow  
Wind Chill: 19°   Ceiling: 800
Heat Index: 30°   Visibility: 2mi
Dew Point: 28°   Wind: 16mph
Humidity: 92%   Direction: 340°NNW
Pressure: 29.72"   Gusts: 23mph
Location:  46.8954°N, 100.519°W
Report Text: KBIS 230301Z 34014G20KT 2SM -SN BR OVC008 M01/M02 A2972 RMK AO2 TWR VIS 2 1/2 P0000 T10111022
Loading
Personal Weather Stations






























Interactive Weather Map New forecast layout! Learn more

10-Day Weather Forecast

Advertisements
Track Severe Weather on mobile